sensor_id;sensor_type;location;lat;lon;timestamp;temperature;humidity
16517;DHT22;8371;52.272;9.746;2023-03-23T00:00:29;15.60;62.30
16517;DHT22;8371;52.272;9.746;2023-03-23T00:02:55;15.60;61.40
16517;DHT22;8371;52.272;9.746;2023-03-23T00:05:20;15.60;61.60
16517;DHT22;8371;52.272;9.746;2023-03-23T00:07:46;15.60;61.70
16517;DHT22;8371;52.272;9.746;2023-03-23T00:10:13;15.60;61.90
16517;DHT22;8371;52.272;9.746;2023-03-23T00:12:40;15.50;62.00
16517;DHT22;8371;52.272;9.746;2023-03-23T00:15:08;15.50;62.10
16517;DHT22;8371;52.272;9.746;2023-03-23T00:17:36;15.50;62.30
16517;DHT22;8371;52.272;9.746;2023-03-23T00:20:02;15.40;62.40
16517;DHT22;8371;52.272;9.746;2023-03-23T00:22:30;15.40;63.20
16517;DHT22;8371;52.272;9.746;2023-03-23T00:24:56;15.30;62.50
16517;DHT22;8371;52.272;9.746;2023-03-23T00:27:22;15.30;62.70
16517;DHT22;8371;52.272;9.746;2023-03-23T00:29:49;15.30;62.90
16517;DHT22;8371;52.272;9.746;2023-03-23T00:32:17;15.20;63.00
16517;DHT22;8371;52.272;9.746;2023-03-23T00:34:43;15.20;63.30
16517;DHT22;8371;52.272;9.746;2023-03-23T00:37:10;15.20;63.40
16517;DHT22;8371;52.272;9.746;2023-03-23T00:39:37;15.10;63.50
16517;DHT22;8371;52.272;9.746;2023-03-23T00:42:04;15.10;63.70
16517;DHT22;8371;52.272;9.746;2023-03-23T00:44:32;15.00;63.80
16517;DHT22;8371;52.272;9.746;2023-03-23T00:46:59;15.00;63.80
16517;DHT22;8371;52.272;9.746;2023-03-23T00:49:26;15.00;64.10
16517;DHT22;8371;52.272;9.746;2023-03-23T00:51:53;14.90;64.00
16517;DHT22;8371;52.272;9.746;2023-03-23T00:54:19;14.90;64.10
16517;DHT22;8371;52.272;9.746;2023-03-23T00:56:45;14.80;64.30
16517;DHT22;8371;52.272;9.746;2023-03-23T00:59:11;14.80;64.30
16517;DHT22;8371;52.272;9.746;2023-03-23T01:01:37;14.80;64.50
16517;DHT22;8371;52.272;9.746;2023-03-23T01:04:03;14.80;65.40
16517;DHT22;8371;52.272;9.746;2023-03-23T01:06:31;14.70;64.60
16517;DHT22;8371;52.272;9.746;2023-03-23T01:08:58;14.70;64.80
16517;DHT22;8371;52.272;9.746;2023-03-23T01:11:24;14.70;65.10
16517;DHT22;8371;52.272;9.746;2023-03-23T01:13:50;14.70;65.20
16517;DHT22;8371;52.272;9.746;2023-03-23T01:16:16;14.70;65.20
16517;DHT22;8371;52.272;9.746;2023-03-23T01:18:42;14.60;65.30
16517;DHT22;8371;52.272;9.746;2023-03-23T01:21:13;14.70;65.30
16517;DHT22;8371;52.272;9.746;2023-03-23T01:23:40;14.70;65.50
16517;DHT22;8371;52.272;9.746;2023-03-23T01:26:08;14.60;65.60
16517;DHT22;8371;52.272;9.746;2023-03-23T01:28:37;14.60;65.60
16517;DHT22;8371;52.272;9.746;2023-03-23T01:31:05;14.60;65.70
16517;DHT22;8371;52.272;9.746;2023-03-23T01:33:31;14.60;66.70
16517;DHT22;8371;52.272;9.746;2023-03-23T01:36:01;14.50;66.00
16517;DHT22;8371;52.272;9.746;2023-03-23T01:38:25;14.50;66.00
16517;DHT22;8371;52.272;9.746;2023-03-23T01:40:51;14.50;66.10
16517;DHT22;8371;52.272;9.746;2023-03-23T01:43:17;14.50;66.10
16517;DHT22;8371;52.272;9.746;2023-03-23T01:45:43;14.50;66.20
16517;DHT22;8371;52.272;9.746;2023-03-23T01:50:59;14.50;66.30
16517;DHT22;8371;52.272;9.746;2023-03-23T01:53:28;14.50;66.40
16517;DHT22;8371;52.272;9.746;2023-03-23T01:55:56;14.50;66.30
16517;DHT22;8371;52.272;9.746;2023-03-23T01:58:26;14.50;66.40
16517;DHT22;8371;52.272;9.746;2023-03-23T02:00:54;14.50;67.20
16517;DHT22;8371;52.272;9.746;2023-03-23T02:03:22;14.50;66.50
16517;DHT22;8371;52.272;9.746;2023-03-23T02:05:48;14.50;67.50
16517;DHT22;8371;52.272;9.746;2023-03-23T02:08:16;14.50;66.70
16517;DHT22;8371;52.272;9.746;2023-03-23T02:10:43;14.50;66.90
16517;DHT22;8371;52.272;9.746;2023-03-23T02:13:10;14.40;66.80
16517;DHT22;8371;52.272;9.746;2023-03-23T02:18:45;14.40;67.00
16517;DHT22;8371;52.272;9.746;2023-03-23T02:21:25;14.40;66.90
16517;DHT22;8371;52.272;9.746;2023-03-23T02:23:52;14.40;66.90
16517;DHT22;8371;52.272;9.746;2023-03-23T02:26:47;14.40;67.00
16517;DHT22;8371;52.272;9.746;2023-03-23T02:29:18;14.40;67.20
16517;DHT22;8371;52.272;9.746;2023-03-23T02:34:42;14.30;67.30
16517;DHT22;8371;52.272;9.746;2023-03-23T02:39:52;14.30;67.20
16517;DHT22;8371;52.272;9.746;2023-03-23T02:42:26;14.30;67.30
16517;DHT22;8371;52.272;9.746;2023-03-23T02:44:52;14.30;67.40
16517;DHT22;8371;52.272;9.746;2023-03-23T02:47:22;14.30;67.40
16517;DHT22;8371;52.272;9.746;2023-03-23T02:49:51;14.30;67.40
16517;DHT22;8371;52.272;9.746;2023-03-23T02:52:20;14.30;67.40
16517;DHT22;8371;52.272;9.746;2023-03-23T02:54:48;14.30;67.50
16517;DHT22;8371;52.272;9.746;2023-03-23T02:57:14;14.30;67.40
16517;DHT22;8371;52.272;9.746;2023-03-23T02:59:41;14.30;67.50
16517;DHT22;8371;52.272;9.746;2023-03-23T03:02:18;14.30;67.60
16517;DHT22;8371;52.272;9.746;2023-03-23T03:04:55;14.30;67.60
16517;DHT22;8371;52.272;9.746;2023-03-23T03:10:02;14.30;67.80
16517;DHT22;8371;52.272;9.746;2023-03-23T03:12:51;14.30;67.90
16517;DHT22;8371;52.272;9.746;2023-03-23T03:15:27;14.30;68.00
16517;DHT22;8371;52.272;9.746;2023-03-23T03:17:55;14.30;68.00
16517;DHT22;8371;52.272;9.746;2023-03-23T03:20:21;14.30;68.00
16517;DHT22;8371;52.272;9.746;2023-03-23T03:22:48;14.20;68.10
16517;DHT22;8371;52.272;9.746;2023-03-23T03:25:15;14.20;68.20
16517;DHT22;8371;52.272;9.746;2023-03-23T03:27:44;14.20;68.20
16517;DHT22;8371;52.272;9.746;2023-03-23T03:30:13;14.20;68.30
16517;DHT22;8371;52.272;9.746;2023-03-23T03:32:43;14.20;68.50
16517;DHT22;8371;52.272;9.746;2023-03-23T03:35:12;14.20;68.60
16517;DHT22;8371;52.272;9.746;2023-03-23T03:37:38;14.20;68.60
16517;DHT22;8371;52.272;9.746;2023-03-23T03:40:11;14.20;68.80
16517;DHT22;8371;52.272;9.746;2023-03-23T03:42:39;14.20;68.90
16517;DHT22;8371;52.272;9.746;2023-03-23T03:45:08;14.10;68.80
16517;DHT22;8371;52.272;9.746;2023-03-23T03:47:34;14.10;69.00
16517;DHT22;8371;52.272;9.746;2023-03-23T03:50:00;14.10;69.00
16517;DHT22;8371;52.272;9.746;2023-03-23T03:52:26;14.10;69.00
16517;DHT22;8371;52.272;9.746;2023-03-23T03:54:53;14.10;69.20
16517;DHT22;8371;52.272;9.746;2023-03-23T03:57:19;14.10;69.40
16517;DHT22;8371;52.272;9.746;2023-03-23T03:59:45;14.00;69.40
16517;DHT22;8371;52.272;9.746;2023-03-23T04:02:11;14.00;69.50
16517;DHT22;8371;52.272;9.746;2023-03-23T04:04:39;14.00;69.60
16517;DHT22;8371;52.272;9.746;2023-03-23T04:07:04;14.00;69.60
16517;DHT22;8371;52.272;9.746;2023-03-23T04:09:30;14.00;69.70
16517;DHT22;8371;52.272;9.746;2023-03-23T04:11:56;14.00;69.80
16517;DHT22;8371;52.272;9.746;2023-03-23T04:14:22;14.00;69.80
16517;DHT22;8371;52.272;9.746;2023-03-23T04:16:48;14.00;70.70
16517;DHT22;8371;52.272;9.746;2023-03-23T04:19:15;14.00;69.90
16517;DHT22;8371;52.272;9.746;2023-03-23T04:21:41;14.00;70.00
16517;DHT22;8371;52.272;9.746;2023-03-23T04:24:07;13.90;69.80
16517;DHT22;8371;52.272;9.746;2023-03-23T04:26:33;14.00;70.00
16517;DHT22;8371;52.272;9.746;2023-03-23T04:28:58;13.90;70.00
16517;DHT22;8371;52.272;9.746;2023-03-23T04:31:25;13.90;70.00
16517;DHT22;8371;52.272;9.746;2023-03-23T04:33:51;13.90;69.90
16517;DHT22;8371;52.272;9.746;2023-03-23T04:36:18;13.90;70.00
16517;DHT22;8371;52.272;9.746;2023-03-23T04:38:44;13.90;70.10
16517;DHT22;8371;52.272;9.746;2023-03-23T04:41:09;13.90;70.20
16517;DHT22;8371;52.272;9.746;2023-03-23T04:43:35;13.90;70.20
16517;DHT22;8371;52.272;9.746;2023-03-23T04:46:03;13.80;70.10
16517;DHT22;8371;52.272;9.746;2023-03-23T04:48:30;13.90;70.30
16517;DHT22;8371;52.272;9.746;2023-03-23T04:50:58;13.90;70.20
16517;DHT22;8371;52.272;9.746;2023-03-23T04:53:25;13.80;70.20
16517;DHT22;8371;52.272;9.746;2023-03-23T04:55:51;13.80;70.20
16517;DHT22;8371;52.272;9.746;2023-03-23T04:58:17;13.80;70.20
16517;DHT22;8371;52.272;9.746;2023-03-23T05:00:43;13.80;70.30
16517;DHT22;8371;52.272;9.746;2023-03-23T05:03:11;13.70;70.20
16517;DHT22;8371;52.272;9.746;2023-03-23T05:05:36;13.70;70.30
16517;DHT22;8371;52.272;9.746;2023-03-23T05:08:03;13.70;70.20
16517;DHT22;8371;52.272;9.746;2023-03-23T05:10:29;13.70;70.40
16517;DHT22;8371;52.272;9.746;2023-03-23T05:12:54;13.70;70.30
16517;DHT22;8371;52.272;9.746;2023-03-23T05:15:20;13.70;70.50
16517;DHT22;8371;52.272;9.746;2023-03-23T05:17:46;13.70;70.40
16517;DHT22;8371;52.272;9.746;2023-03-23T05:20:13;13.70;70.40
16517;DHT22;8371;52.272;9.746;2023-03-23T05:22:41;13.70;70.50
16517;DHT22;8371;52.272;9.746;2023-03-23T05:25:26;13.70;70.40
16517;DHT22;8371;52.272;9.746;2023-03-23T05:27:52;13.80;70.50
16517;DHT22;8371;52.272;9.746;2023-03-23T05:30:20;13.70;70.40
16517;DHT22;8371;52.272;9.746;2023-03-23T05:32:47;13.70;70.40
16517;DHT22;8371;52.272;9.746;2023-03-23T05:35:17;13.70;70.50
16517;DHT22;8371;52.272;9.746;2023-03-23T05:37:43;13.70;70.50
16517;DHT22;8371;52.272;9.746;2023-03-23T05:40:10;13.70;70.60
16517;DHT22;8371;52.272;9.746;2023-03-23T05:42:39;13.70;70.60
16517;DHT22;8371;52.272;9.746;2023-03-23T05:45:09;13.70;70.60
16517;DHT22;8371;52.272;9.746;2023-03-23T05:47:37;13.70;70.60
16517;DHT22;8371;52.272;9.746;2023-03-23T05:50:06;13.70;70.60
16517;DHT22;8371;52.272;9.746;2023-03-23T05:52:37;13.70;70.60
16517;DHT22;8371;52.272;9.746;2023-03-23T05:55:04;13.80;70.80
16517;DHT22;8371;52.272;9.746;2023-03-23T05:57:30;13.80;70.70
16517;DHT22;8371;52.272;9.746;2023-03-23T05:59:56;13.80;70.70
16517;DHT22;8371;52.272;9.746;2023-03-23T06:02:23;13.80;70.70
16517;DHT22;8371;52.272;9.746;2023-03-23T06:04:50;13.90;70.80
16517;DHT22;8371;52.272;9.746;2023-03-23T06:07:18;13.90;70.80
16517;DHT22;8371;52.272;9.746;2023-03-23T06:09:44;13.90;70.70
16517;DHT22;8371;52.272;9.746;2023-03-23T06:12:10;13.90;70.70
16517;DHT22;8371;52.272;9.746;2023-03-23T06:14:36;14.00;71.00
16517;DHT22;8371;52.272;9.746;2023-03-23T06:17:03;14.00;70.80
16517;DHT22;8371;52.272;9.746;2023-03-23T06:19:28;14.00;70.80
16517;DHT22;8371;52.272;9.746;2023-03-23T06:21:54;14.10;70.90
16517;DHT22;8371;52.272;9.746;2023-03-23T06:24:20;14.10;70.80
16517;DHT22;8371;52.272;9.746;2023-03-23T06:26:47;14.10;70.70
16517;DHT22;8371;52.272;9.746;2023-03-23T06:29:13;14.20;70.80
16517;DHT22;8371;52.272;9.746;2023-03-23T06:31:42;14.20;70.80
16517;DHT22;8371;52.272;9.746;2023-03-23T06:34:09;14.30;70.70
16517;DHT22;8371;52.272;9.746;2023-03-23T06:36:35;14.30;70.70
16517;DHT22;8371;52.272;9.746;2023-03-23T06:39:02;14.30;70.70
16517;DHT22;8371;52.272;9.746;2023-03-23T06:41:34;14.40;70.70
16517;DHT22;8371;52.272;9.746;2023-03-23T06:43:58;14.40;70.60
16517;DHT22;8371;52.272;9.746;2023-03-23T06:46:24;14.50;70.70
16517;DHT22;8371;52.272;9.746;2023-03-23T06:48:50;14.60;70.70
16517;DHT22;8371;52.272;9.746;2023-03-23T06:51:18;14.50;70.60
16517;DHT22;8371;52.272;9.746;2023-03-23T06:53:44;14.60;70.70
16517;DHT22;8371;52.272;9.746;2023-03-23T06:56:10;14.60;69.90
16517;DHT22;8371;52.272;9.746;2023-03-23T06:58:37;14.60;70.50
16517;DHT22;8371;52.272;9.746;2023-03-23T07:01:03;14.70;70.50
16517;DHT22;8371;52.272;9.746;2023-03-23T07:03:29;14.70;70.40
16517;DHT22;8371;52.272;9.746;2023-03-23T07:05:56;14.70;70.30
16517;DHT22;8371;52.272;9.746;2023-03-23T07:08:22;14.80;70.40
16517;DHT22;8371;52.272;9.746;2023-03-23T07:10:50;14.80;70.40
16517;DHT22;8371;52.272;9.746;2023-03-23T07:13:17;14.80;70.40
16517;DHT22;8371;52.272;9.746;2023-03-23T07:15:43;14.80;70.40
16517;DHT22;8371;52.272;9.746;2023-03-23T07:18:09;14.90;70.40
16517;DHT22;8371;52.272;9.746;2023-03-23T07:20:35;14.90;70.40
16517;DHT22;8371;52.272;9.746;2023-03-23T07:23:02;14.90;70.40
16517;DHT22;8371;52.272;9.746;2023-03-23T07:25:27;15.00;70.40
16517;DHT22;8371;52.272;9.746;2023-03-23T07:27:53;15.00;70.40
16517;DHT22;8371;52.272;9.746;2023-03-23T07:30:19;15.10;70.40
16517;DHT22;8371;52.272;9.746;2023-03-23T07:32:45;15.10;70.30
16517;DHT22;8371;52.272;9.746;2023-03-23T07:35:11;15.20;70.40
16517;DHT22;8371;52.272;9.746;2023-03-23T07:37:37;15.10;70.10
16517;DHT22;8371;52.272;9.746;2023-03-23T07:40:04;15.30;70.20
16517;DHT22;8371;52.272;9.746;2023-03-23T07:42:34;15.40;70.20
16517;DHT22;8371;52.272;9.746;2023-03-23T07:44:59;15.40;70.00
16517;DHT22;8371;52.272;9.746;2023-03-23T07:47:25;15.50;69.90
16517;DHT22;8371;52.272;9.746;2023-03-23T07:49:51;15.60;70.00
16517;DHT22;8371;52.272;9.746;2023-03-23T07:52:17;15.60;69.80
16517;DHT22;8371;52.272;9.746;2023-03-23T07:54:43;15.70;69.70
16517;DHT22;8371;52.272;9.746;2023-03-23T07:57:08;15.80;69.70
16517;DHT22;8371;52.272;9.746;2023-03-23T07:59:34;15.80;69.70
16517;DHT22;8371;52.272;9.746;2023-03-23T08:02:00;15.90;69.60
16517;DHT22;8371;52.272;9.746;2023-03-23T08:04:26;16.00;69.60
16517;DHT22;8371;52.272;9.746;2023-03-23T08:06:52;16.10;69.50
16517;DHT22;8371;52.272;9.746;2023-03-23T08:09:18;16.20;69.40
16517;DHT22;8371;52.272;9.746;2023-03-23T08:11:44;16.30;69.50
16517;DHT22;8371;52.272;9.746;2023-03-23T08:14:09;16.40;69.40
16517;DHT22;8371;52.272;9.746;2023-03-23T08:16:35;16.50;69.20
16517;DHT22;8371;52.272;9.746;2023-03-23T08:19:01;16.50;69.00
16517;DHT22;8371;52.272;9.746;2023-03-23T08:21:27;16.60;68.80
16517;DHT22;8371;52.272;9.746;2023-03-23T08:23:54;16.70;68.70
16517;DHT22;8371;52.272;9.746;2023-03-23T08:26:20;16.80;68.60
16517;DHT22;8371;52.272;9.746;2023-03-23T08:28:46;16.90;68.50
16517;DHT22;8371;52.272;9.746;2023-03-23T08:31:14;16.90;68.20
16517;DHT22;8371;52.272;9.746;2023-03-23T08:33:40;16.90;68.10
16517;DHT22;8371;52.272;9.746;2023-03-23T08:36:07;17.10;68.00
16517;DHT22;8371;52.272;9.746;2023-03-23T08:38:34;17.10;67.90
16517;DHT22;8371;52.272;9.746;2023-03-23T08:41:01;17.10;67.80
16517;DHT22;8371;52.272;9.746;2023-03-23T08:43:29;17.20;67.80
16517;DHT22;8371;52.272;9.746;2023-03-23T08:45:55;17.20;67.60
16517;DHT22;8371;52.272;9.746;2023-03-23T08:48:21;17.30;67.60
16517;DHT22;8371;52.272;9.746;2023-03-23T08:50:49;17.30;67.50
16517;DHT22;8371;52.272;9.746;2023-03-23T08:53:16;17.30;67.50
16517;DHT22;8371;52.272;9.746;2023-03-23T08:55:41;17.40;67.50
16517;DHT22;8371;52.272;9.746;2023-03-23T08:58:08;17.40;67.20
16517;DHT22;8371;52.272;9.746;2023-03-23T09:00:34;17.40;67.30
16517;DHT22;8371;52.272;9.746;2023-03-23T09:02:59;17.40;67.00
16517;DHT22;8371;52.272;9.746;2023-03-23T09:05:27;17.50;66.80
16517;DHT22;8371;52.272;9.746;2023-03-23T09:07:55;17.50;66.80
16517;DHT22;8371;52.272;9.746;2023-03-23T09:10:21;17.50;66.70
16517;DHT22;8371;52.272;9.746;2023-03-23T09:12:48;17.50;66.60
16517;DHT22;8371;52.272;9.746;2023-03-23T09:15:16;17.50;66.70
16517;DHT22;8371;52.272;9.746;2023-03-23T09:17:45;17.50;66.70
16517;DHT22;8371;52.272;9.746;2023-03-23T09:20:15;17.50;66.80
16517;DHT22;8371;52.272;9.746;2023-03-23T09:22:43;17.60;66.80
16517;DHT22;8371;52.272;9.746;2023-03-23T09:25:14;17.60;66.60
16517;DHT22;8371;52.272;9.746;2023-03-23T09:27:41;17.60;66.30
16517;DHT22;8371;52.272;9.746;2023-03-23T09:30:10;17.60;66.10
16517;DHT22;8371;52.272;9.746;2023-03-23T09:32:38;17.50;66.10
16517;DHT22;8371;52.272;9.746;2023-03-23T09:35:06;17.60;66.20
16517;DHT22;8371;52.272;9.746;2023-03-23T09:37:39;17.50;66.30
16517;DHT22;8371;52.272;9.746;2023-03-23T09:40:11;17.60;66.40
16517;DHT22;8371;52.272;9.746;2023-03-23T09:45:30;17.70;65.90
16517;DHT22;8371;52.272;9.746;2023-03-23T09:50:47;17.70;65.90
16517;DHT22;8371;52.272;9.746;2023-03-23T09:53:17;17.70;65.90
16517;DHT22;8371;52.272;9.746;2023-03-23T09:55:43;17.70;65.80
16517;DHT22;8371;52.272;9.746;2023-03-23T09:58:26;17.70;65.40
16517;DHT22;8371;52.272;9.746;2023-03-23T10:00:57;17.70;65.40
16517;DHT22;8371;52.272;9.746;2023-03-23T10:03:29;17.70;65.60
16517;DHT22;8371;52.272;9.746;2023-03-23T10:05:55;17.70;65.20
16517;DHT22;8371;52.272;9.746;2023-03-23T10:08:23;17.70;65.40
16517;DHT22;8371;52.272;9.746;2023-03-23T10:16:27;17.60;65.00
16517;DHT22;8371;52.272;9.746;2023-03-23T10:18:58;17.50;65.00
16517;DHT22;8371;52.272;9.746;2023-03-23T10:21:23;17.50;65.10
16517;DHT22;8371;52.272;9.746;2023-03-23T10:24:01;17.50;65.20
16517;DHT22;8371;52.272;9.746;2023-03-23T10:29:26;17.50;65.30
16517;DHT22;8371;52.272;9.746;2023-03-23T10:34:53;17.60;65.10
16517;DHT22;8371;52.272;9.746;2023-03-23T10:37:26;17.60;65.00
16517;DHT22;8371;52.272;9.746;2023-03-23T10:39:57;17.60;64.90
16517;DHT22;8371;52.272;9.746;2023-03-23T10:42:27;17.70;64.80
16517;DHT22;8371;52.272;9.746;2023-03-23T10:44:53;17.70;65.10
16517;DHT22;8371;52.272;9.746;2023-03-23T10:47:22;17.70;65.00
16517;DHT22;8371;52.272;9.746;2023-03-23T10:49:51;17.80;65.10
16517;DHT22;8371;52.272;9.746;2023-03-23T10:55:10;18.00;65.20
16517;DHT22;8371;52.272;9.746;2023-03-23T10:57:37;18.10;65.00
16517;DHT22;8371;52.272;9.746;2023-03-23T11:02:44;18.40;65.10
16517;DHT22;8371;52.272;9.746;2023-03-23T11:08:01;18.70;64.70
16517;DHT22;8371;52.272;9.746;2023-03-23T11:10:36;18.90;64.40
16517;DHT22;8371;52.272;9.746;2023-03-23T11:13:02;19.10;64.60
16517;DHT22;8371;52.272;9.746;2023-03-23T11:15:35;19.30;64.10
16517;DHT22;8371;52.272;9.746;2023-03-23T11:18:38;19.50;63.70
16517;DHT22;8371;52.272;9.746;2023-03-23T11:20:55;19.70;63.40
16517;DHT22;8371;52.272;9.746;2023-03-23T11:23:32;19.90;63.50
16517;DHT22;8371;52.272;9.746;2023-03-23T11:26:16;20.10;63.20
16517;DHT22;8371;52.272;9.746;2023-03-23T11:28:30;20.30;63.00
16517;DHT22;8371;52.272;9.746;2023-03-23T11:30:57;20.50;62.80
16517;DHT22;8371;52.272;9.746;2023-03-23T11:33:23;20.80;62.50
16517;DHT22;8371;52.272;9.746;2023-03-23T11:35:52;21.00;61.50
16517;DHT22;8371;52.272;9.746;2023-03-23T11:38:21;21.20;61.20
16517;DHT22;8371;52.272;9.746;2023-03-23T11:40:50;21.40;61.00
16517;DHT22;8371;52.272;9.746;2023-03-23T11:43:24;21.60;60.90
16517;DHT22;8371;52.272;9.746;2023-03-23T11:45:59;21.80;60.40
16517;DHT22;8371;52.272;9.746;2023-03-23T11:51:30;22.10;59.20
16517;DHT22;8371;52.272;9.746;2023-03-23T11:56:38;22.20;58.10
16517;DHT22;8371;52.272;9.746;2023-03-23T11:59:10;22.20;57.80
16517;DHT22;8371;52.272;9.746;2023-03-23T12:01:56;22.20;57.60
16517;DHT22;8371;52.272;9.746;2023-03-23T12:07:13;22.00;56.70
16517;DHT22;8371;52.272;9.746;2023-03-23T12:09:51;21.90;56.70
16517;DHT22;8371;52.272;9.746;2023-03-23T12:17:44;21.40;56.60
16517;DHT22;8371;52.272;9.746;2023-03-23T12:25:50;20.50;56.50
16517;DHT22;8371;52.272;9.746;2023-03-23T12:28:45;20.10;56.70
16517;DHT22;8371;52.272;9.746;2023-03-23T12:34:06;19.40;57.60
16517;DHT22;8371;52.272;9.746;2023-03-23T12:37:19;19.10;58.10
16517;DHT22;8371;52.272;9.746;2023-03-23T12:48:10;18.30;59.10
16517;DHT22;8371;52.272;9.746;2023-03-23T12:50:40;18.10;59.20
16517;DHT22;8371;52.272;9.746;2023-03-23T12:53:10;17.90;59.40
16517;DHT22;8371;52.272;9.746;2023-03-23T12:55:49;17.80;59.60
16517;DHT22;8371;52.272;9.746;2023-03-23T12:58:19;17.60;60.00
16517;DHT22;8371;52.272;9.746;2023-03-23T13:00:57;17.50;60.40
16517;DHT22;8371;52.272;9.746;2023-03-23T13:03:33;17.50;60.50
16517;DHT22;8371;52.272;9.746;2023-03-23T13:06:06;17.40;60.60
16517;DHT22;8371;52.272;9.746;2023-03-23T13:08:37;17.30;60.50
16517;DHT22;8371;52.272;9.746;2023-03-23T13:11:10;17.30;60.60
16517;DHT22;8371;52.272;9.746;2023-03-23T13:13:54;17.30;60.70
16517;DHT22;8371;52.272;9.746;2023-03-23T13:16:35;17.30;60.70
16517;DHT22;8371;52.272;9.746;2023-03-23T13:19:19;17.20;60.80
16517;DHT22;8371;52.272;9.746;2023-03-23T13:24:25;17.30;61.00
16517;DHT22;8371;52.272;9.746;2023-03-23T13:26:53;17.30;60.90
16517;DHT22;8371;52.272;9.746;2023-03-23T13:29:22;17.40;61.10
16517;DHT22;8371;52.272;9.746;2023-03-23T13:32:04;17.50;61.30
16517;DHT22;8371;52.272;9.746;2023-03-23T13:34:31;17.50;61.30
16517;DHT22;8371;52.272;9.746;2023-03-23T13:37:03;17.70;61.30
16517;DHT22;8371;52.272;9.746;2023-03-23T13:39:54;17.70;61.20
16517;DHT22;8371;52.272;9.746;2023-03-23T13:42:31;17.90;60.40
16517;DHT22;8371;52.272;9.746;2023-03-23T13:45:22;18.10;61.10
16517;DHT22;8371;52.272;9.746;2023-03-23T13:47:48;18.20;60.80
16517;DHT22;8371;52.272;9.746;2023-03-23T13:52:55;18.40;60.20
16517;DHT22;8371;52.272;9.746;2023-03-23T14:00:49;18.20;60.00
16517;DHT22;8371;52.272;9.746;2023-03-23T14:03:18;18.10;60.00
16517;DHT22;8371;52.272;9.746;2023-03-23T14:05:49;18.00;60.10
16517;DHT22;8371;52.272;9.746;2023-03-23T14:08:24;17.90;60.10
16517;DHT22;8371;52.272;9.746;2023-03-23T14:10:54;17.70;60.10
16517;DHT22;8371;52.272;9.746;2023-03-23T14:13:35;17.60;60.30
16517;DHT22;8371;52.272;9.746;2023-03-23T14:16:14;17.40;60.60
16517;DHT22;8371;52.272;9.746;2023-03-23T14:18:46;17.20;60.90
16517;DHT22;8371;52.272;9.746;2023-03-23T14:21:21;17.10;61.50
16517;DHT22;8371;52.272;9.746;2023-03-23T14:23:45;17.00;61.80
16517;DHT22;8371;52.272;9.746;2023-03-23T14:26:15;16.80;62.20
16517;DHT22;8371;52.272;9.746;2023-03-23T14:28:43;16.70;62.40
16517;DHT22;8371;52.272;9.746;2023-03-23T14:31:16;16.70;62.60
16517;DHT22;8371;52.272;9.746;2023-03-23T14:33:42;16.70;62.70
16517;DHT22;8371;52.272;9.746;2023-03-23T14:36:08;16.60;63.00
16517;DHT22;8371;52.272;9.746;2023-03-23T14:38:33;16.60;63.30
16517;DHT22;8371;52.272;9.746;2023-03-23T14:41:02;16.50;63.60
16517;DHT22;8371;52.272;9.746;2023-03-23T14:43:29;16.60;63.90
16517;DHT22;8371;52.272;9.746;2023-03-23T14:45:58;16.60;64.00
16517;DHT22;8371;52.272;9.746;2023-03-23T14:48:23;16.60;64.00
16517;DHT22;8371;52.272;9.746;2023-03-23T14:51:04;16.60;64.00
16517;DHT22;8371;52.272;9.746;2023-03-23T14:53:37;16.70;64.20
16517;DHT22;8371;52.272;9.746;2023-03-23T14:56:12;16.60;64.10
16517;DHT22;8371;52.272;9.746;2023-03-23T14:58:42;16.60;64.10
16517;DHT22;8371;52.272;9.746;2023-03-23T15:01:13;16.60;64.10
16517;DHT22;8371;52.272;9.746;2023-03-23T15:03:42;16.70;64.20
16517;DHT22;8371;52.272;9.746;2023-03-23T15:06:17;16.60;64.00
16517;DHT22;8371;52.272;9.746;2023-03-23T15:08:44;16.60;64.20
16517;DHT22;8371;52.272;9.746;2023-03-23T15:11:23;16.60;64.60
16517;DHT22;8371;52.272;9.746;2023-03-23T15:13:46;16.60;64.70
16517;DHT22;8371;52.272;9.746;2023-03-23T15:16:26;16.60;64.70
16517;DHT22;8371;52.272;9.746;2023-03-23T15:18:51;16.70;64.70
16517;DHT22;8371;52.272;9.746;2023-03-23T15:21:22;16.80;65.10
16517;DHT22;8371;52.272;9.746;2023-03-23T15:23:48;16.70;64.90
16517;DHT22;8371;52.272;9.746;2023-03-23T15:26:33;16.80;65.10
16517;DHT22;8371;52.272;9.746;2023-03-23T15:29:22;16.90;65.10
16517;DHT22;8371;52.272;9.746;2023-03-23T15:31:55;16.90;65.00
16517;DHT22;8371;52.272;9.746;2023-03-23T15:36:59;17.00;64.90
16517;DHT22;8371;52.272;9.746;2023-03-23T15:39:26;17.10;65.60
16517;DHT22;8371;52.272;9.746;2023-03-23T15:41:53;17.10;64.60
16517;DHT22;8371;52.272;9.746;2023-03-23T15:44:25;17.20;64.50
16517;DHT22;8371;52.272;9.746;2023-03-23T15:46:55;17.20;64.60
16517;DHT22;8371;52.272;9.746;2023-03-23T15:49:22;17.20;64.60
16517;DHT22;8371;52.272;9.746;2023-03-23T15:51:50;17.30;64.70
16517;DHT22;8371;52.272;9.746;2023-03-23T15:54:16;17.30;64.60
16517;DHT22;8371;52.272;9.746;2023-03-23T15:56:43;17.40;64.50
16517;DHT22;8371;52.272;9.746;2023-03-23T15:59:09;17.50;64.50
16517;DHT22;8371;52.272;9.746;2023-03-23T16:01:37;17.50;64.50
16517;DHT22;8371;52.272;9.746;2023-03-23T16:04:10;17.60;64.50
16517;DHT22;8371;52.272;9.746;2023-03-23T16:06:36;17.60;64.40
16517;DHT22;8371;52.272;9.746;2023-03-23T16:09:03;17.70;64.40
16517;DHT22;8371;52.272;9.746;2023-03-23T16:11:30;17.80;64.30
16517;DHT22;8371;52.272;9.746;2023-03-23T16:13:57;17.80;64.00
16517;DHT22;8371;52.272;9.746;2023-03-23T16:16:38;17.90;64.00
16517;DHT22;8371;52.272;9.746;2023-03-23T16:19:04;17.90;63.80
16517;DHT22;8371;52.272;9.746;2023-03-23T16:21:30;17.90;63.60
16517;DHT22;8371;52.272;9.746;2023-03-23T16:23:56;17.90;63.50
16517;DHT22;8371;52.272;9.746;2023-03-23T16:26:22;17.90;63.50
16517;DHT22;8371;52.272;9.746;2023-03-23T16:28:48;17.90;63.40
16517;DHT22;8371;52.272;9.746;2023-03-23T16:31:13;17.90;63.30
16517;DHT22;8371;52.272;9.746;2023-03-23T16:33:39;17.90;63.40
16517;DHT22;8371;52.272;9.746;2023-03-23T16:36:06;17.90;63.50
16517;DHT22;8371;52.272;9.746;2023-03-23T16:38:32;17.90;63.50
16517;DHT22;8371;52.272;9.746;2023-03-23T16:40:57;18.00;63.70
16517;DHT22;8371;52.272;9.746;2023-03-23T16:43:23;18.00;63.60
16517;DHT22;8371;52.272;9.746;2023-03-23T16:45:49;18.10;63.50
16517;DHT22;8371;52.272;9.746;2023-03-23T16:48:15;18.10;63.40
16517;DHT22;8371;52.272;9.746;2023-03-23T16:50:42;18.10;64.10
16517;DHT22;8371;52.272;9.746;2023-03-23T16:53:08;18.10;63.20
16517;DHT22;8371;52.272;9.746;2023-03-23T16:55:36;18.10;63.20
16517;DHT22;8371;52.272;9.746;2023-03-23T16:58:02;18.10;63.10
16517;DHT22;8371;52.272;9.746;2023-03-23T17:00:28;18.10;63.00
16517;DHT22;8371;52.272;9.746;2023-03-23T17:02:55;18.10;63.00
16517;DHT22;8371;52.272;9.746;2023-03-23T17:05:26;18.00;62.70
16517;DHT22;8371;52.272;9.746;2023-03-23T17:07:52;17.90;62.60
16517;DHT22;8371;52.272;9.746;2023-03-23T17:10:21;17.80;62.60
16517;DHT22;8371;52.272;9.746;2023-03-23T17:12:47;17.70;62.60
16517;DHT22;8371;52.272;9.746;2023-03-23T17:15:13;17.70;62.70
16517;DHT22;8371;52.272;9.746;2023-03-23T17:17:39;17.50;62.60